Time;durP1;ratioP1;P1;durP2;ratioP2;P2;SDS_P1;SDS_P2;PMS_P1;PMS_P2;Temp;Humidity;BMP_temperature;BMP_pressure;BME280_temperature;BME280_humidity;BME280_pressure;Samples;Min_cycle;Max_cycle;Signal;HPM_P1;HPM_P2
2023/01/26 00:02:27;;;;;;;;;14.50;11.50;;;;;;;;119410;1194;25667;-63
2023/01/26 00:04:55;;;;;;;;;14.67;11.67;;;;;;;;119409;1185;25629;-63
2023/01/26 00:07:23;;;;;;;;;14.00;11.00;;;;;;;;119432;1185;25422;-63
2023/01/26 00:09:51;;;;;;;;;13.75;11.25;;;;;;;;119387;1195;25314;-63
2023/01/26 00:12:20;;;;;;;;;12.00;11.00;;;;;;;;119377;1194;24829;-63
2023/01/26 00:14:48;;;;;;;;;17.33;12.33;;;;;;;;119402;1187;25950;-62
2023/01/26 00:17:24;;;;;;;;;15.00;12.00;;;;;;;;119367;1195;25268;-62
2023/01/26 00:19:54;;;;;;;;;15.00;12.00;;;;;;;;119389;1194;24926;-62
2023/01/26 00:22:24;;;;;;;;;11.50;9.50;;;;;;;;119362;1195;25477;-61
2023/01/26 00:24:53;;;;;;;;;14.50;11.50;;;;;;;;119381;1195;25002;-61
2023/01/26 00:27:21;;;;;;;;;9.00;8.33;;;;;;;;119431;1194;25708;-62
2023/01/26 00:29:49;;;;;;;;;12.50;10.00;;;;;;;;119427;1185;24836;-62
2023/01/26 00:32:17;;;;;;;;;19.00;11.00;;;;;;;;119403;1185;25307;-62
2023/01/26 00:34:46;;;;;;;;;10.50;10.00;;;;;;;;119397;1190;25165;-60
2023/01/26 00:37:14;;;;;;;;;11.00;9.00;;;;;;;;119396;1194;25349;-60
2023/01/26 00:39:42;;;;;;;;;13.00;12.00;;;;;;;;119409;1195;25504;-60
2023/01/26 00:42:12;;;;;;;;;15.00;13.50;;;;;;;;119420;1185;25085;-60
2023/01/26 00:44:41;;;;;;;;;12.50;12.50;;;;;;;;119415;1194;24813;-60
2023/01/26 00:47:11;;;;;;;;;15.50;13.00;;;;;;;;119359;1195;24796;-60
2023/01/26 00:49:39;;;;;;;;;10.50;8.50;;;;;;;;119417;1194;24954;-60
2023/01/26 00:52:07;;;;;;;;;10.33;9.00;;;;;;;;119418;1185;24933;-60
2023/01/26 00:54:36;;;;;;;;;12.00;9.50;;;;;;;;119395;1195;24797;-60
2023/01/26 00:57:04;;;;;;;;;12.00;11.00;;;;;;;;119417;1194;25547;-60
2023/01/26 00:59:32;;;;;;;;;15.50;12.00;;;;;;;;119429;1194;25179;-60
2023/01/26 01:02:01;;;;;;;;;14.00;11.00;;;;;;;;119396;1187;25170;-60
2023/01/26 01:04:30;;;;;;;;;13.00;12.00;;;;;;;;119426;1185;25234;-60
2023/01/26 01:06:58;;;;;;;;;9.67;9.67;;;;;;;;119380;1195;25240;-60
2023/01/26 01:09:26;;;;;;;;;16.00;13.00;;;;;;;;119405;1194;25412;-60
2023/01/26 01:11:54;;;;;;;;;10.00;9.50;;;;;;;;119442;1185;25565;-60
2023/01/26 01:14:23;;;;;;;;;13.00;13.00;;;;;;;;119405;1185;25391;-60
2023/01/26 01:16:51;;;;;;;;;13.00;13.00;;;;;;;;119431;1194;25441;-60
2023/01/26 01:19:19;;;;;;;;;10.00;10.00;;;;;;;;119398;1194;25153;-60
2023/01/26 01:21:47;;;;;;;;;11.50;11.50;;;;;;;;119418;1185;24750;-60
2023/01/26 01:24:16;;;;;;;;;12.00;8.00;;;;;;;;119393;1195;25100;-60
2023/01/26 01:26:44;;;;;;;;;13.33;13.33;;;;;;;;119439;1195;25701;-60
2023/01/26 01:29:13;;;;;;;;;11.00;9.50;;;;;;;;119403;1190;24908;-60
2023/01/26 01:31:42;;;;;;;;;11.25;11.25;;;;;;;;119371;1194;25353;-60
2023/01/26 01:34:10;;;;;;;;;13.00;12.50;;;;;;;;119347;1195;25231;-60
2023/01/26 01:36:38;;;;;;;;;12.50;9.50;;;;;;;;119409;1194;25068;-60
2023/01/26 01:39:07;;;;;;;;;16.00;13.00;;;;;;;;119380;1187;25111;-60
2023/01/26 01:41:35;;;;;;;;;17.50;14.00;;;;;;;;119351;1195;24936;-60
2023/01/26 01:44:12;;;;;;;;;8.00;8.00;;;;;;;;119376;1194;24898;-60
2023/01/26 01:46:45;;;;;;;;;14.33;10.00;;;;;;;;119417;1185;25183;-60
2023/01/26 01:49:25;;;;;;;;;10.33;10.33;;;;;;;;119430;1194;25638;-60
2023/01/26 01:52:10;;;;;;;;;13.00;11.00;;;;;;;;119419;1195;25310;-60
2023/01/26 01:54:47;;;;;;;;;12.00;11.00;;;;;;;;119409;1194;25634;-60
2023/01/26 01:57:26;;;;;;;;;13.00;11.00;;;;;;;;119409;1185;25562;-60
2023/01/26 02:00:01;;;;;;;;;11.50;10.25;;;;;;;;119411;1185;25254;-60
2023/01/26 02:02:30;;;;;;;;;12.50;12.50;;;;;;;;119420;1186;24864;-60
2023/01/26 02:05:03;;;;;;;;;14.67;12.33;;;;;;;;119407;1194;25168;-60
2023/01/26 02:07:32;;;;;;;;;12.00;11.00;;;;;;;;119403;1195;26031;-60
2023/01/26 02:10:18;;;;;;;;;12.67;12.33;;;;;;;;119338;1194;25143;-60
2023/01/26 02:12:49;;;;;;;;;11.50;11.50;;;;;;;;119408;1185;25147;-60
2023/01/26 02:15:17;;;;;;;;;17.00;11.00;;;;;;;;119403;1186;25079;-60
2023/01/26 02:17:46;;;;;;;;;12.00;10.00;;;;;;;;119408;1194;24744;-60
2023/01/26 02:20:39;;;;;;;;;17.00;12.00;;;;;;;;119410;1194;25137;-60
2023/01/26 02:23:16;;;;;;;;;12.33;11.67;;;;;;;;119391;1195;25342;-60
2023/01/26 02:25:54;;;;;;;;;13.00;13.00;;;;;;;;119443;1185;24678;-60
2023/01/26 02:28:26;;;;;;;;;12.00;10.00;;;;;;;;119410;1195;24928;-60
2023/01/26 02:30:55;;;;;;;;;16.00;13.00;;;;;;;;119370;1185;24864;-60
2023/01/26 02:33:26;;;;;;;;;12.50;10.00;;;;;;;;119405;1195;24700;-60
2023/01/26 02:35:54;;;;;;;;;10.00;9.00;;;;;;;;119429;1194;25627;-60
2023/01/26 02:38:27;;;;;;;;;15.00;10.75;;;;;;;;119386;1194;25389;-60
2023/01/26 02:41:01;;;;;;;;;15.00;11.00;;;;;;;;119415;1194;25059;-60
2023/01/26 02:43:31;;;;;;;;;12.33;10.33;;;;;;;;119417;1187;24958;-60
2023/01/26 02:45:59;;;;;;;;;14.00;7.00;;;;;;;;119410;1194;25604;-60
2023/01/26 02:51:14;;;;;;;;;12.00;10.00;;;;;;;;119390;1190;25304;-60
2023/01/26 02:53:42;;;;;;;;;12.00;10.00;;;;;;;;119439;1194;25227;-60
2023/01/26 02:56:10;;;;;;;;;9.00;7.50;;;;;;;;119393;1194;25045;-60
2023/01/26 02:58:38;;;;;;;;;9.00;9.00;;;;;;;;119450;1185;25905;-60
2023/01/26 03:01:07;;;;;;;;;13.00;11.67;;;;;;;;119367;1185;25503;-60
2023/01/26 03:03:41;;;;;;;;;11.75;10.00;;;;;;;;119400;1195;25659;-60
2023/01/26 03:06:11;;;;;;;;;13.00;13.00;;;;;;;;119429;1195;25083;-60
2023/01/26 03:08:39;;;;;;;;;11.50;11.50;;;;;;;;119372;1194;25017;-60
2023/01/26 03:11:08;;;;;;;;;10.00;10.00;;;;;;;;119434;1194;25503;-60
2023/01/26 03:13:36;;;;;;;;;15.00;13.75;;;;;;;;119411;1195;25346;-60
2023/01/26 03:16:09;;;;;;;;;10.25;10.00;;;;;;;;119406;1195;25276;-60
2023/01/26 03:29:45;;;;;;;;;12.67;11.00;;;;;;;;119387;1195;25103;-60
2023/01/26 03:32:14;;;;;;;;;14.00;12.00;;;;;;;;119398;1185;25330;-60
2023/01/26 03:34:42;;;;;;;;;12.50;10.50;;;;;;;;119419;1194;25530;-60
2023/01/26 03:37:11;;;;;;;;;13.00;10.33;;;;;;;;119380;1185;24868;-61
2023/01/26 03:56:24;;;;;;;;;10.00;7.00;;;;;;;;119412;1195;25054;-61
2023/01/26 03:58:53;;;;;;;;;11.50;10.50;;;;;;;;119405;1194;25393;-61
2023/01/26 04:01:26;;;;;;;;;12.50;9.00;;;;;;;;119360;1194;25348;-61
2023/01/26 04:09:35;;;;;;;;;13.00;13.00;;;;;;;;119397;1194;25082;-61
2023/01/26 04:12:04;;;;;;;;;10.25;10.25;;;;;;;;119821;1182;25160;-61
2023/01/26 04:22:53;;;;;;;;;9.00;9.00;;;;;;;;119427;1185;25854;-60
2023/01/26 04:25:21;;;;;;;;;14.00;13.33;;;;;;;;119388;1195;25282;-60
2023/01/26 04:27:50;;;;;;;;;10.00;10.00;;;;;;;;119386;1185;25260;-61
2023/01/26 04:30:18;;;;;;;;;14.00;13.00;;;;;;;;119435;1194;25514;-61
2023/01/26 04:32:47;;;;;;;;;13.50;9.25;;;;;;;;119408;1194;26281;-61
2023/01/26 04:35:15;;;;;;;;;8.00;8.00;;;;;;;;119416;1194;24927;-61
2023/01/26 04:37:43;;;;;;;;;12.67;10.33;;;;;;;;119416;1195;26318;-61
2023/01/26 04:40:12;;;;;;;;;16.00;9.50;;;;;;;;119408;1185;25843;-62
2023/01/26 04:42:41;;;;;;;;;13.00;12.50;;;;;;;;119382;1195;24916;-61
2023/01/26 04:45:10;;;;;;;;;14.00;12.50;;;;;;;;119429;1185;24806;-61
2023/01/26 04:47:38;;;;;;;;;10.00;9.00;;;;;;;;119389;1194;25392;-61
2023/01/26 04:50:07;;;;;;;;;13.50;11.75;;;;;;;;119408;1194;25291;-61
2023/01/26 04:52:36;;;;;;;;;14.00;11.00;;;;;;;;119411;1185;25522;-61
2023/01/26 04:55:04;;;;;;;;;13.00;11.00;;;;;;;;119399;1195;25504;-61
2023/01/26 04:57:33;;;;;;;;;12.00;12.00;;;;;;;;119424;1194;25784;-61
2023/01/26 05:00:01;;;;;;;;;9.50;8.50;;;;;;;;119416;1185;24953;-61
2023/01/26 05:02:29;;;;;;;;;8.00;8.00;;;;;;;;119427;1187;25005;-61
2023/01/26 05:04:57;;;;;;;;;10.50;9.75;;;;;;;;119442;1194;24761;-61
2023/01/26 05:07:25;;;;;;;;;12.00;9.50;;;;;;;;119397;1195;24948;-61
2023/01/26 05:09:54;;;;;;;;;13.25;11.00;;;;;;;;119415;1185;25676;-61
2023/01/26 05:12:35;;;;;;;;;10.00;10.00;;;;;;;;119408;1195;25592;-61
2023/01/26 05:15:03;;;;;;;;;12.50;11.50;;;;;;;;119396;1195;25546;-61
2023/01/26 05:17:31;;;;;;;;;9.67;9.67;;;;;;;;119412;1194;25164;-61
2023/01/26 05:20:00;;;;;;;;;10.00;7.50;;;;;;;;119427;1194;25224;-61
2023/01/26 05:22:28;;;;;;;;;13.00;11.00;;;;;;;;119425;1185;25100;-61
2023/01/26 05:24:56;;;;;;;;;12.00;11.00;;;;;;;;119390;1194;25433;-61
2023/01/26 05:27:24;;;;;;;;;13.67;11.33;;;;;;;;119403;1195;25000;-61
2023/01/26 05:29:57;;;;;;;;;13.00;10.50;;;;;;;;119412;1194;24958;-61
2023/01/26 05:32:27;;;;;;;;;12.00;7.00;;;;;;;;119428;1194;25417;-61
2023/01/26 05:34:56;;;;;;;;;8.00;7.67;;;;;;;;119337;1195;25695;-61
2023/01/26 05:37:26;;;;;;;;;6.67;6.67;;;;;;;;119417;1194;24811;-61
2023/01/26 05:39:54;;;;;;;;;8.50;8.50;;;;;;;;119369;1195;25116;-61
2023/01/26 05:42:23;;;;;;;;;8.00;8.00;;;;;;;;119414;1194;25601;-61
2023/01/26 05:44:51;;;;;;;;;9.00;8.00;;;;;;;;119382;1195;25000;-61
2023/01/26 05:47:20;;;;;;;;;14.00;11.50;;;;;;;;119398;1194;25185;-61
2023/01/26 05:49:48;;;;;;;;;12.00;9.00;;;;;;;;119427;1185;25400;-61
2023/01/26 05:52:18;;;;;;;;;13.00;7.50;;;;;;;;119382;1194;24948;-61
2023/01/26 05:54:47;;;;;;;;;8.00;7.50;;;;;;;;119424;1195;24984;-61
2023/01/26 05:57:18;;;;;;;;;13.00;13.00;;;;;;;;119395;1195;25493;-61
2023/01/26 05:59:46;;;;;;;;;12.00;11.00;;;;;;;;119398;1191;25475;-61
2023/01/26 06:02:14;;;;;;;;;14.75;10.50;;;;;;;;119409;1194;25475;-61
2023/01/26 06:04:43;;;;;;;;;13.50;10.00;;;;;;;;119415;1194;25264;-61
2023/01/26 06:07:14;;;;;;;;;11.00;10.50;;;;;;;;119415;1185;25634;-61
2023/01/26 06:09:42;;;;;;;;;14.50;11.00;;;;;;;;119411;1185;24717;-61
2023/01/26 06:12:15;;;;;;;;;15.00;11.00;;;;;;;;119378;1194;24942;-61
2023/01/26 06:14:43;;;;;;;;;11.00;10.00;;;;;;;;119426;1194;25136;-61
2023/01/26 06:17:15;;;;;;;;;15.67;11.33;;;;;;;;119426;1185;25662;-61
2023/01/26 06:19:44;;;;;;;;;15.00;13.00;;;;;;;;119370;1194;24857;-61
2023/01/26 06:22:12;;;;;;;;;14.00;12.00;;;;;;;;119415;1185;24981;-61
2023/01/26 06:24:41;;;;;;;;;12.33;11.00;;;;;;;;119419;1195;26072;-61
2023/01/26 06:27:14;;;;;;;;;12.25;10.75;;;;;;;;119384;1195;25644;-61
2023/01/26 06:29:43;;;;;;;;;13.00;12.67;;;;;;;;119407;1187;24835;-61
2023/01/26 06:32:13;;;;;;;;;10.00;10.00;;;;;;;;119408;1195;25231;-61
2023/01/26 06:34:41;;;;;;;;;12.50;11.50;;;;;;;;119348;1187;25095;-61
2023/01/26 06:37:09;;;;;;;;;14.00;13.00;;;;;;;;119423;1194;25245;-61
2023/01/26 06:39:39;;;;;;;;;13.50;9.50;;;;;;;;119392;1194;25186;-61
2023/01/26 06:42:07;;;;;;;;;9.00;7.00;;;;;;;;119413;1194;25613;-62
2023/01/26 06:44:36;;;;;;;;;13.50;12.00;;;;;;;;119484;1190;24788;-61
2023/01/26 06:47:05;;;;;;;;;12.33;8.33;;;;;;;;119395;1195;26386;-62
2023/01/26 06:49:34;;;;;;;;;13.67;12.00;;;;;;;;119345;1195;25480;-62
2023/01/26 06:52:04;;;;;;;;;11.67;10.33;;;;;;;;119355;1195;25346;-61
2023/01/26 06:54:33;;;;;;;;;12.00;11.25;;;;;;;;119378;1195;25390;-61
2023/01/26 06:57:01;;;;;;;;;12.50;9.50;;;;;;;;119403;1187;25126;-61
2023/01/26 06:59:29;;;;;;;;;11.00;6.33;;;;;;;;119379;1195;25470;-62
2023/01/26 07:01:57;;;;;;;;;7.50;7.50;;;;;;;;119412;1190;25043;-61
2023/01/26 07:04:26;;;;;;;;;12.00;9.33;;;;;;;;119394;1195;25225;-61
2023/01/26 07:06:54;;;;;;;;;8.50;8.00;;;;;;;;119347;1195;25340;-61
2023/01/26 07:09:23;;;;;;;;;9.00;9.00;;;;;;;;119405;1195;25582;-61
2023/01/26 07:11:51;;;;;;;;;13.00;11.50;;;;;;;;119395;1186;25182;-61
2023/01/26 07:14:19;;;;;;;;;16.00;12.33;;;;;;;;119388;1191;25294;-61
2023/01/26 07:16:48;;;;;;;;;9.50;8.50;;;;;;;;119394;1195;24805;-61
2023/01/26 07:19:16;;;;;;;;;13.00;10.00;;;;;;;;119352;1195;25128;-61
2023/01/26 07:21:44;;;;;;;;;14.50;11.00;;;;;;;;119368;1195;24993;-61
2023/01/26 07:24:13;;;;;;;;;10.50;9.50;;;;;;;;119398;1195;25407;-61
2023/01/26 07:26:41;;;;;;;;;14.50;12.25;;;;;;;;119352;1195;25611;-61
2023/01/26 07:29:09;;;;;;;;;11.00;10.67;;;;;;;;119383;1195;24907;-61
2023/01/26 07:31:37;;;;;;;;;13.00;12.00;;;;;;;;119414;1195;25559;-61
2023/01/26 07:34:06;;;;;;;;;9.00;9.00;;;;;;;;119372;1195;25081;-61
2023/01/26 07:36:34;;;;;;;;;13.00;11.33;;;;;;;;119426;1187;25597;-61
2023/01/26 07:39:03;;;;;;;;;14.00;14.00;;;;;;;;119411;1187;24885;-61
2023/01/26 07:41:35;;;;;;;;;16.00;11.00;;;;;;;;119357;1195;24770;-61
2023/01/26 07:44:05;;;;;;;;;8.00;7.00;;;;;;;;119394;1195;24895;-61
2023/01/26 07:46:33;;;;;;;;;14.00;10.50;;;;;;;;119385;1187;25743;-61
2023/01/26 07:49:02;;;;;;;;;12.00;11.00;;;;;;;;119368;1195;25625;-61
2023/01/26 07:51:30;;;;;;;;;12.00;12.00;;;;;;;;119388;1187;25080;-61
2023/01/26 07:53:59;;;;;;;;;10.67;10.00;;;;;;;;119393;1195;25523;-61
2023/01/26 07:56:27;;;;;;;;;11.50;10.00;;;;;;;;119398;1195;25099;-61
2023/01/26 07:58:56;;;;;;;;;12.50;12.00;;;;;;;;119401;1187;24689;-61
2023/01/26 08:01:24;;;;;;;;;12.67;11.00;;;;;;;;119343;1195;25147;-61
2023/01/26 08:03:52;;;;;;;;;15.50;11.75;;;;;;;;119381;1186;25164;-61
2023/01/26 08:06:21;;;;;;;;;12.00;11.00;;;;;;;;119349;1195;25470;-61
2023/01/26 08:08:50;;;;;;;;;12.00;10.00;;;;;;;;119421;1187;25614;-61
2023/01/26 08:11:21;;;;;;;;;10.00;9.00;;;;;;;;119398;1195;25019;-61
2023/01/26 08:13:49;;;;;;;;;13.50;11.00;;;;;;;;119348;1187;26170;-61
2023/01/26 08:16:18;;;;;;;;;12.50;11.50;;;;;;;;119382;1195;25255;-61
2023/01/26 08:18:46;;;;;;;;;11.50;11.50;;;;;;;;119383;1187;24882;-61
2023/01/26 08:21:17;;;;;;;;;11.00;8.50;;;;;;;;119375;1192;24880;-61
2023/01/26 08:23:49;;;;;;;;;12.50;12.25;;;;;;;;119401;1185;24996;-61
2023/01/26 08:26:18;;;;;;;;;14.00;14.00;;;;;;;;119388;1194;24993;-62
2023/01/26 08:28:47;;;;;;;;;13.00;11.33;;;;;;;;119399;1195;24944;-61
2023/01/26 08:31:18;;;;;;;;;14.00;11.00;;;;;;;;119347;1187;25042;-61
2023/01/26 08:33:49;;;;;;;;;15.50;12.00;;;;;;;;119343;1195;25020;-61
2023/01/26 08:36:18;;;;;;;;;22.00;18.00;;;;;;;;119313;1187;25688;-61
2023/01/26 08:38:50;;;;;;;;;26.00;22.00;;;;;;;;119378;1195;25111;-61
2023/01/26 08:41:18;;;;;;;;;22.00;20.00;;;;;;;;119355;1187;25265;-60
2023/01/26 08:43:47;;;;;;;;;27.00;24.00;;;;;;;;119356;1195;25533;-60
2023/01/26 08:46:15;;;;;;;;;23.67;23.33;;;;;;;;119382;1195;25486;-60
2023/01/26 08:48:43;;;;;;;;;25.00;20.67;;;;;;;;119395;1195;24799;-61
2023/01/26 08:51:12;;;;;;;;;27.00;25.50;;;;;;;;119355;1194;24863;-60
2023/01/26 08:53:40;;;;;;;;;21.00;16.00;;;;;;;;119377;1195;24898;-60
2023/01/26 08:56:11;;;;;;;;;26.50;22.00;;;;;;;;119398;1195;24898;-60
2023/01/26 08:58:39;;;;;;;;;9.50;6.00;;;;;;;;119360;1195;24897;-60
2023/01/26 09:01:11;;;;;;;;;24.00;21.67;;;;;;;;119370;1187;24827;-60
2023/01/26 09:03:39;;;;;;;;;30.50;27.50;;;;;;;;119345;1195;25934;-60
2023/01/26 09:06:10;;;;;;;;;28.00;22.50;;;;;;;;119350;1195;25139;-60
2023/01/26 09:08:38;;;;;;;;;24.00;19.00;;;;;;;;119314;1195;25723;-60
2023/01/26 09:11:07;;;;;;;;;22.67;19.67;;;;;;;;119391;1195;25668;-60
2023/01/26 09:13:37;;;;;;;;;23.00;20.00;;;;;;;;119416;1187;25697;-60
2023/01/26 09:16:09;;;;;;;;;20.00;18.00;;;;;;;;119359;1195;25212;-60
2023/01/26 09:18:37;;;;;;;;;27.00;21.00;;;;;;;;119354;1195;26270;-61
2023/01/26 09:21:06;;;;;;;;;22.00;19.00;;;;;;;;119367;1195;25044;-61
2023/01/26 09:23:35;;;;;;;;;25.50;20.50;;;;;;;;119360;1195;25631;-60
2023/01/26 09:26:03;;;;;;;;;23.50;19.50;;;;;;;;119391;1187;25001;-60
2023/01/26 09:28:32;;;;;;;;;34.00;22.00;;;;;;;;119350;1195;25330;-60
2023/01/26 09:31:04;;;;;;;;;22.50;19.50;;;;;;;;119373;1195;25375;-60
2023/01/26 09:33:33;;;;;;;;;24.00;22.67;;;;;;;;119350;1195;24759;-59
2023/01/26 09:36:06;;;;;;;;;27.50;24.50;;;;;;;;119357;1195;25289;-60
2023/01/26 09:38:35;;;;;;;;;29.00;24.00;;;;;;;;119407;1190;25433;-60
2023/01/26 09:41:09;;;;;;;;;28.00;24.00;;;;;;;;119410;1195;25027;-59
2023/01/26 09:43:42;;;;;;;;;22.00;22.00;;;;;;;;119388;1187;25137;-59
2023/01/26 09:46:21;;;;;;;;;25.33;22.00;;;;;;;;119367;1195;25024;-60
2023/01/26 09:49:05;;;;;;;;;23.00;18.50;;;;;;;;119396;1187;25322;-59
2023/01/26 09:51:37;;;;;;;;;30.00;25.33;;;;;;;;119357;1195;25797;-60
2023/01/26 09:54:30;;;;;;;;;25.00;21.67;;;;;;;;119354;1195;24907;-59
2023/01/26 09:57:04;;;;;;;;;29.00;22.00;;;;;;;;119404;1195;24845;-60
2023/01/26 09:59:48;;;;;;;;;32.50;24.00;;;;;;;;119380;1192;25085;-60
2023/01/26 10:02:36;;;;;;;;;19.00;17.00;;;;;;;;119426;1191;25209;-60
2023/01/26 10:05:35;;;;;;;;;25.50;22.00;;;;;;;;119408;1187;25285;-59
2023/01/26 10:08:09;;;;;;;;;25.00;22.00;;;;;;;;119289;1195;25153;-60
2023/01/26 10:10:42;;;;;;;;;22.00;18.50;;;;;;;;119362;1195;24863;-59
2023/01/26 10:13:13;;;;;;;;;19.75;18.75;;;;;;;;119365;1195;25576;-60
2023/01/26 10:15:42;;;;;;;;;17.50;16.50;;;;;;;;119340;1195;24780;-59
2023/01/26 10:18:17;;;;;;;;;20.33;18.67;;;;;;;;119349;1195;25199;-60
2023/01/26 10:20:50;;;;;;;;;19.00;17.50;;;;;;;;119354;1192;25397;-60
2023/01/26 10:23:27;;;;;;;;;23.00;18.50;;;;;;;;119362;1195;25072;-60
2023/01/26 10:26:09;;;;;;;;;25.67;20.00;;;;;;;;119370;1187;25369;-60
2023/01/26 10:28:38;;;;;;;;;22.50;19.50;;;;;;;;119335;1195;25013;-60
2023/01/26 10:31:21;;;;;;;;;22.00;18.00;;;;;;;;119348;1186;26474;-60
2023/01/26 10:33:53;;;;;;;;;25.00;23.50;;;;;;;;119379;1195;25681;-60
2023/01/26 10:36:22;;;;;;;;;22.50;18.50;;;;;;;;119408;1195;25782;-60
2023/01/26 10:38:51;;;;;;;;;27.50;23.50;;;;;;;;119350;1195;25161;-60
2023/01/26 10:41:28;;;;;;;;;27.50;22.25;;;;;;;;119331;1195;25529;-61
2023/01/26 10:44:14;;;;;;;;;23.50;21.00;;;;;;;;119350;1195;25079;-60
2023/01/26 10:46:42;;;;;;;;;26.00;20.50;;;;;;;;119369;1191;25722;-60
2023/01/26 10:49:11;;;;;;;;;23.50;17.00;;;;;;;;119406;1195;25341;-60
2023/01/26 10:51:44;;;;;;;;;19.75;17.25;;;;;;;;119381;1195;25072;-60
2023/01/26 10:54:22;;;;;;;;;29.00;20.00;;;;;;;;119353;1195;25845;-60
2023/01/26 10:57:03;;;;;;;;;28.00;26.00;;;;;;;;119358;1195;25409;-60
2023/01/26 10:59:49;;;;;;;;;20.50;17.00;;;;;;;;119362;1195;25362;-60
2023/01/26 11:02:29;;;;;;;;;22.00;20.00;;;;;;;;119338;1195;25659;-61
2023/01/26 11:05:02;;;;;;;;;22.50;20.00;;;;;;;;119359;1195;25595;-62
2023/01/26 11:07:39;;;;;;;;;18.00;18.00;;;;;;;;119350;1187;25892;-62
2023/01/26 11:10:30;;;;;;;;;23.00;18.00;;;;;;;;119349;1186;25384;-63
2023/01/26 11:13:25;;;;;;;;;20.00;16.00;;;;;;;;119381;1187;25433;-62
2023/01/26 11:16:08;;;;;;;;;17.50;15.00;;;;;;;;119349;1195;25515;-61
2023/01/26 11:18:41;;;;;;;;;24.00;19.00;;;;;;;;119337;1195;25390;-60
2023/01/26 11:21:38;;;;;;;;;22.33;21.33;;;;;;;;119348;1195;25591;-60
2023/01/26 11:24:12;;;;;;;;;16.00;16.00;;;;;;;;119130;1194;25574;-60
2023/01/26 11:27:05;;;;;;;;;26.00;17.33;;;;;;;;119343;1191;25778;-60
2023/01/26 11:29:57;;;;;;;;;22.75;19.25;;;;;;;;119426;1187;25486;-60
2023/01/26 11:32:28;;;;;;;;;24.00;20.00;;;;;;;;119407;1190;25744;-59
2023/01/26 11:35:22;;;;;;;;;25.50;23.00;;;;;;;;119378;1190;25102;-58
2023/01/26 11:38:00;;;;;;;;;27.00;23.50;;;;;;;;119383;1190;25070;-59
2023/01/26 11:40:39;;;;;;;;;22.00;21.00;;;;;;;;119391;1182;24859;-59
2023/01/26 11:43:20;;;;;;;;;30.00;22.00;;;;;;;;119411;1195;25578;-59
2023/01/26 11:46:27;;;;;;;;;30.33;24.67;;;;;;;;119418;1195;24920;-59
2023/01/26 11:49:22;;;;;;;;;26.00;24.00;;;;;;;;119322;1194;25119;-60
2023/01/26 11:52:03;;;;;;;;;27.00;23.50;;;;;;;;119405;1185;25224;-61
2023/01/26 11:54:42;;;;;;;;;34.00;23.00;;;;;;;;119401;1195;25346;-61
2023/01/26 11:57:14;;;;;;;;;28.67;26.67;;;;;;;;119385;1194;25128;-61
2023/01/26 11:59:50;;;;;;;;;25.50;22.25;;;;;;;;119366;1195;24924;-61
2023/01/26 12:02:34;;;;;;;;;26.00;23.00;;;;;;;;119298;1195;25701;-61
2023/01/26 12:05:13;;;;;;;;;32.50;25.75;;;;;;;;119380;1187;25247;-62
2023/01/26 12:07:59;;;;;;;;;30.50;25.00;;;;;;;;119347;1194;25783;-61
2023/01/26 12:11:20;;;;;;;;;24.00;22.00;;;;;;;;119403;1194;25493;-61
2023/01/26 12:14:07;;;;;;;;;27.00;22.00;;;;;;;;119401;1194;24755;-61
2023/01/26 12:16:57;;;;;;;;;30.00;23.00;;;;;;;;119424;1195;24852;-61
2023/01/26 12:19:54;;;;;;;;;22.00;19.00;;;;;;;;119433;1185;25895;-62
2023/01/26 12:22:30;;;;;;;;;28.00;22.00;;;;;;;;119411;1187;24747;-62
2023/01/26 12:25:17;;;;;;;;;33.00;25.00;;;;;;;;119448;1187;25117;-61
2023/01/26 12:28:11;;;;;;;;;26.00;22.00;;;;;;;;119426;1194;25133;-61
2023/01/26 12:30:43;;;;;;;;;31.33;26.00;;;;;;;;119415;1194;24840;-61
2023/01/26 12:33:11;;;;;;;;;24.67;21.00;;;;;;;;119426;1182;25400;-61
2023/01/26 12:36:02;;;;;;;;;20.50;19.50;;;;;;;;119388;1192;25514;-61
2023/01/26 12:38:41;;;;;;;;;28.00;26.00;;;;;;;;119402;1195;25580;-61
2023/01/26 12:41:34;;;;;;;;;30.00;25.00;;;;;;;;119378;1195;25450;-61
2023/01/26 12:44:25;;;;;;;;;21.00;21.00;;;;;;;;119346;1195;25047;-62
2023/01/26 12:47:00;;;;;;;;;26.00;23.00;;;;;;;;119333;1195;25072;-63
2023/01/26 12:49:36;;;;;;;;;25.00;22.50;;;;;;;;119330;1195;24782;-62
2023/01/26 12:52:09;;;;;;;;;24.00;23.00;;;;;;;;119376;1187;25612;-62
2023/01/26 12:54:57;;;;;;;;;21.00;21.00;;;;;;;;119380;1186;25443;-62
2023/01/26 12:57:41;;;;;;;;;27.00;24.00;;;;;;;;119340;1192;25772;-62
2023/01/26 13:00:31;;;;;;;;;34.50;26.00;;;;;;;;119451;1191;25357;-62
2023/01/26 13:03:21;;;;;;;;;22.00;22.00;;;;;;;;119404;1191;25539;-62
2023/01/26 13:05:55;;;;;;;;;24.50;20.00;;;;;;;;119354;1190;25504;-63
2023/01/26 13:08:29;;;;;;;;;20.00;16.00;;;;;;;;119465;1190;25663;-63
2023/01/26 13:10:59;;;;;;;;;26.50;23.00;;;;;;;;119386;1194;25195;-63
2023/01/26 13:13:30;;;;;;;;;29.00;22.00;;;;;;;;119382;1187;25782;-63
2023/01/26 13:16:14;;;;;;;;;25.00;22.50;;;;;;;;119359;1187;25241;-64
2023/01/26 13:18:53;;;;;;;;;26.50;23.50;;;;;;;;119369;1195;25491;-64
2023/01/26 13:21:42;;;;;;;;;24.00;20.00;;;;;;;;119344;1195;25000;-64
2023/01/26 13:24:17;;;;;;;;;25.50;21.00;;;;;;;;119331;1187;25089;-64
2023/01/26 13:26:53;;;;;;;;;21.50;16.50;;;;;;;;119359;1195;25544;-64
2023/01/26 13:29:24;;;;;;;;;22.00;16.00;;;;;;;;119358;1195;25620;-64
2023/01/26 13:32:16;;;;;;;;;22.00;18.00;;;;;;;;119363;1195;25328;-64
2023/01/26 13:34:58;;;;;;;;;24.75;18.25;;;;;;;;119252;1191;25385;-64
2023/01/26 13:37:39;;;;;;;;;25.00;23.50;;;;;;;;119323;1195;25753;-64
2023/01/26 13:40:19;;;;;;;;;25.50;20.50;;;;;;;;119371;1195;25522;-64
2023/01/26 13:42:55;;;;;;;;;27.00;21.00;;;;;;;;119343;1195;25235;-64
2023/01/26 13:45:37;;;;;;;;;22.50;20.50;;;;;;;;119343;1195;25390;-64
2023/01/26 13:48:14;;;;;;;;;23.00;22.00;;;;;;;;119327;1187;24831;-64
2023/01/26 13:50:42;;;;;;;;;14.67;14.67;;;;;;;;119314;1194;24756;-64
2023/01/26 13:53:48;;;;;;;;;21.00;18.00;;;;;;;;119378;1191;25638;-64
2023/01/26 13:56:29;;;;;;;;;25.00;24.00;;;;;;;;119427;1187;24996;-64
2023/01/26 13:59:11;;;;;;;;;19.50;16.00;;;;;;;;119420;1190;25563;-64
2023/01/26 14:01:48;;;;;;;;;17.00;14.33;;;;;;;;119423;1194;25536;-64
2023/01/26 14:04:21;;;;;;;;;18.00;16.50;;;;;;;;119427;1185;24884;-64
2023/01/26 14:07:05;;;;;;;;;27.67;19.33;;;;;;;;119389;1190;24801;-64
2023/01/26 14:09:43;;;;;;;;;19.00;17.00;;;;;;;;119413;1194;26518;-64
2023/01/26 14:12:24;;;;;;;;;24.00;21.00;;;;;;;;119419;1191;25433;-63
2023/01/26 14:14:55;;;;;;;;;20.00;18.00;;;;;;;;119397;1190;25545;-61
2023/01/26 14:17:29;;;;;;;;;26.00;20.50;;;;;;;;119452;1192;25707;-66
2023/01/26 14:20:02;;;;;;;;;19.00;18.00;;;;;;;;119370;1190;24731;-65
2023/01/26 14:22:30;;;;;;;;;21.50;18.00;;;;;;;;119330;1191;25636;-64
2023/01/26 14:24:59;;;;;;;;;21.50;18.50;;;;;;;;119340;1195;24954;-64
2023/01/26 14:27:40;;;;;;;;;27.00;22.00;;;;;;;;119409;1194;25434;-64
2023/01/26 14:30:28;;;;;;;;;19.00;17.00;;;;;;;;119426;1191;25101;-65
2023/01/26 14:33:10;;;;;;;;;21.00;18.00;;;;;;;;119405;1194;25282;-63
2023/01/26 14:35:40;;;;;;;;;21.00;18.00;;;;;;;;119367;1191;24852;-60
2023/01/26 14:38:13;;;;;;;;;23.50;18.50;;;;;;;;119435;1191;25356;-60
2023/01/26 14:40:46;;;;;;;;;20.00;18.00;;;;;;;;119391;1194;24959;-60
2023/01/26 14:43:15;;;;;;;;;26.50;18.50;;;;;;;;119343;1187;24835;-61
2023/01/26 14:46:06;;;;;;;;;23.00;21.50;;;;;;;;119374;1186;25489;-60
2023/01/26 14:48:46;;;;;;;;;22.33;20.00;;;;;;;;119422;1194;25649;-62
2023/01/26 14:51:20;;;;;;;;;20.50;16.50;;;;;;;;119368;1187;25690;-61
2023/01/26 14:53:50;;;;;;;;;24.00;18.00;;;;;;;;119337;1187;24829;-61
2023/01/26 14:56:21;;;;;;;;;24.00;19.00;;;;;;;;119334;1195;25470;-61
2023/01/26 14:58:52;;;;;;;;;21.00;18.00;;;;;;;;119320;1195;25364;-61
2023/01/26 15:01:25;;;;;;;;;21.00;17.00;;;;;;;;119362;1187;25286;-61
2023/01/26 15:04:00;;;;;;;;;22.67;15.33;;;;;;;;119366;1195;24763;-61
2023/01/26 15:06:29;;;;;;;;;21.33;16.67;;;;;;;;119356;1195;25440;-61
2023/01/26 15:09:01;;;;;;;;;22.33;20.33;;;;;;;;119335;1195;25380;-61
2023/01/26 15:14:46;;;;;;;;;21.00;19.00;;;;;;;;119352;1195;25708;-62
2023/01/26 15:17:29;;;;;;;;;15.75;14.00;;;;;;;;119401;1195;25398;-62
2023/01/26 15:19:57;;;;;;;;;21.50;16.50;;;;;;;;119375;1195;25680;-62
2023/01/26 15:22:26;;;;;;;;;20.50;17.00;;;;;;;;119410;1187;25033;-62
2023/01/26 15:25:18;;;;;;;;;19.00;17.50;;;;;;;;119378;1195;25389;-62
2023/01/26 15:27:52;;;;;;;;;23.50;19.00;;;;;;;;119369;1195;25274;-62
2023/01/26 15:30:30;;;;;;;;;19.50;17.00;;;;;;;;119385;1187;25750;-62